Time;durP1;ratioP1;P1;durP2;ratioP2;P2;SDS_P1;SDS_P2;PMS_P1;PMS_P2;Temp;Humidity;BMP_temperature;BMP_pressure;BME280_temperature;BME280_humidity;BME280_pressure;Samples;Min_cycle;Max_cycle;Signal;HPM_P1;HPM_P2
2022/03/14 00:02:13;;;;;;;3.33;2.03;;;11.30;67.10;;;;;;5008778;28;25067;-73
2022/03/14 00:04:38;;;;;;;2.30;2.10;;;11.40;67.20;;;;;;5008592;28;25084;-72
2022/03/14 00:07:05;;;;;;;3.28;2.55;;;11.40;67.20;;;;;;5008882;28;25106;-72
2022/03/14 00:09:30;;;;;;;2.55;2.33;;;11.40;67.00;;;;;;4997049;28;25083;-72
2022/03/14 00:11:56;;;;;;;3.15;2.40;;;11.40;67.30;;;;;;5010021;28;25068;-71
2022/03/14 00:14:22;;;;;;;2.50;2.22;;;11.30;67.10;;;;;;4982514;28;25058;-73
2022/03/14 00:16:47;;;;;;;2.72;2.47;;;11.30;67.70;;;;;;4999502;28;25080;-71
2022/03/14 00:19:13;;;;;;;3.20;2.53;;;11.30;67.90;;;;;;5010515;28;25176;-73
2022/03/14 00:21:40;;;;;;;2.60;2.40;;;11.30;67.70;;;;;;5011238;28;25126;-72
2022/03/14 00:24:11;;;;;;;3.33;2.45;;;11.30;67.90;;;;;;5009006;28;25063;-72
2022/03/14 00:26:39;;;;;;;3.00;2.67;;;11.30;68.20;;;;;;4992246;28;25076;-71
2022/03/14 00:29:05;;;;;;;2.45;2.22;;;11.20;68.40;;;;;;5011614;28;25140;-70
2022/03/14 00:31:32;;;;;;;3.63;2.38;;;11.20;68.40;;;;;;4993686;28;25096;-72
2022/03/14 00:33:58;;;;;;;3.00;2.55;;;11.20;68.70;;;;;;4992331;28;25085;-72
2022/03/14 00:36:25;;;;;;;2.45;2.25;;;11.20;68.60;;;;;;5009341;28;25174;-72
2022/03/14 00:38:51;;;;;;;3.78;2.63;;;11.30;69.40;;;;;;5009641;28;25058;-73
2022/03/14 00:41:16;;;;;;;4.32;2.50;;;11.30;68.70;;;;;;5000267;28;25096;-72
2022/03/14 00:43:42;;;;;;;3.92;2.63;;;11.30;69.10;;;;;;4996536;28;25161;-72
2022/03/14 00:46:08;;;;;;;3.60;2.83;;;11.20;69.20;;;;;;5008403;28;25091;-72
2022/03/14 00:48:35;;;;;;;3.53;2.95;;;11.20;69.50;;;;;;4990322;28;25081;-72
2022/03/14 00:51:02;;;;;;;3.10;2.70;;;11.20;69.90;;;;;;5008075;28;25059;-72
2022/03/14 00:53:28;;;;;;;3.10;2.80;;;11.20;69.70;;;;;;5008596;28;25061;-72
2022/03/14 00:55:54;;;;;;;2.80;2.50;;;11.10;69.90;;;;;;5008171;28;25130;-72
2022/03/14 00:58:20;;;;;;;3.05;2.47;;;11.10;70.30;;;;;;5008107;28;25067;-73
2022/03/14 01:00:48;;;;;;;3.67;2.70;;;11.00;70.80;;;;;;5006681;28;25080;-72
2022/03/14 01:03:14;;;;;;;2.75;2.55;;;11.10;70.70;;;;;;5003447;28;25074;-72
2022/03/14 01:05:39;;;;;;;3.67;2.85;;;11.10;70.90;;;;;;5008757;28;25048;-72
2022/03/14 01:08:06;;;;;;;2.38;2.17;;;11.00;71.10;;;;;;5008802;28;25129;-72
2022/03/14 01:10:32;;;;;;;2.97;2.70;;;11.10;71.20;;;;;;5008484;28;25078;-71
2022/03/14 01:12:58;;;;;;;3.25;2.85;;;11.00;71.40;;;;;;4989793;28;25081;-71
2022/03/14 01:15:24;;;;;;;4.45;2.63;;;11.00;71.80;;;;;;5008174;28;25068;-72
2022/03/14 01:17:50;;;;;;;3.03;2.72;;;11.00;71.70;;;;;;5008323;28;25108;-72
2022/03/14 01:20:16;;;;;;;4.32;2.95;;;11.00;71.70;;;;;;5007671;28;25134;-72
2022/03/14 01:22:41;;;;;;;3.13;2.70;;;11.00;72.40;;;;;;5007895;28;25081;-73
2022/03/14 01:25:07;;;;;;;2.88;2.58;;;10.90;72.50;;;;;;5007249;28;25129;-72
2022/03/14 01:27:33;;;;;;;3.78;2.47;;;11.00;72.80;;;;;;4990148;28;25052;-72
2022/03/14 01:29:58;;;;;;;4.72;2.78;;;11.00;72.70;;;;;;4990798;28;25060;-72
2022/03/14 01:32:24;;;;;;;2.85;2.55;;;11.00;73.10;;;;;;5008140;28;25140;-73
2022/03/14 01:34:49;;;;;;;3.90;3.03;;;11.00;72.80;;;;;;5008203;28;25089;-71
2022/03/14 01:37:19;;;;;;;5.03;2.95;;;10.90;73.20;;;;;;5008761;28;25088;-73
2022/03/14 01:39:46;;;;;;;3.47;3.00;;;10.90;73.40;;;;;;5008725;28;25080;-71
2022/03/14 01:42:19;;;;;;;2.83;2.55;;;10.90;73.80;;;;;;5007910;28;25067;-70
2022/03/14 01:44:47;;;;;;;4.05;2.88;;;10.90;74.50;;;;;;5007134;28;25152;-73
2022/03/14 01:47:14;;;;;;;4.05;2.90;;;10.90;74.90;;;;;;5008429;28;25099;-73
2022/03/14 01:49:44;;;;;;;2.75;2.53;;;10.80;75.60;;;;;;5007455;28;25084;-71
2022/03/14 01:52:10;;;;;;;3.85;3.05;;;10.80;76.40;;;;;;4990189;28;25098;-70
2022/03/14 01:54:38;;;;;;;4.95;2.95;;;10.80;77.00;;;;;;5007783;28;25091;-73
2022/03/14 01:57:05;;;;;;;3.22;2.92;;;10.80;78.90;;;;;;5007351;28;25062;-72
2022/03/14 01:59:31;;;;;;;3.97;3.58;;;10.70;80.80;;;;;;5008614;28;25078;-72
2022/03/14 02:01:57;;;;;;;3.70;3.30;;;10.70;81.80;;;;;;5007373;28;25161;-72
2022/03/14 02:04:23;;;;;;;4.78;3.85;;;10.60;83.00;;;;;;4992857;28;25097;-73
2022/03/14 02:06:52;;;;;;;5.18;4.07;;;10.60;84.70;;;;;;5012022;28;25062;-73
2022/03/14 02:09:20;;;;;;;4.85;3.80;;;10.50;85.70;;;;;;5011789;28;25123;-73
2022/03/14 02:11:55;;;;;;;5.05;4.07;;;10.50;87.10;;;;;;4994992;28;25062;-72
2022/03/14 02:14:21;;;;;;;5.32;4.10;;;10.40;88.90;;;;;;5011982;28;25136;-72
2022/03/14 02:16:47;;;;;;;4.72;3.55;;;10.30;89.80;;;;;;4993441;28;25148;-72
2022/03/14 02:19:13;;;;;;;5.03;4.50;;;10.20;90.60;;;;;;5010745;28;25068;-73
2022/03/14 02:21:38;;;;;;;4.75;4.20;;;10.20;91.20;;;;;;4993952;28;25070;-73
2022/03/14 02:24:04;;;;;;;7.55;4.65;;;10.10;91.40;;;;;;5010641;28;25061;-73
2022/03/14 02:26:31;;;;;;;4.72;4.30;;;10.20;92.00;;;;;;5012165;28;25116;-72
2022/03/14 02:28:57;;;;;;;5.68;4.53;;;10.10;91.90;;;;;;4977568;28;25100;-73
2022/03/14 02:31:24;;;;;;;5.88;5.25;;;10.10;92.30;;;;;;5010450;28;25071;-72
2022/03/14 02:33:49;;;;;;;5.15;4.45;;;10.20;92.50;;;;;;5010355;28;25129;-72
2022/03/14 02:36:15;;;;;;;5.38;4.78;;;10.20;92.90;;;;;;5010395;28;25131;-71
2022/03/14 02:38:41;;;;;;;5.53;4.60;;;10.10;93.50;;;;;;5011393;28;25065;-72
2022/03/14 02:41:06;;;;;;;5.68;4.30;;;10.20;94.00;;;;;;5010278;28;25060;-72
2022/03/14 02:43:32;;;;;;;7.10;5.18;;;10.10;94.20;;;;;;5010652;28;25053;-70
2022/03/14 02:45:58;;;;;;;5.70;4.93;;;10.20;94.40;;;;;;5010303;28;25081;-73
2022/03/14 02:48:23;;;;;;;6.75;5.82;;;10.10;94.40;;;;;;5010249;28;25057;-73
2022/03/14 02:50:53;;;;;;;7.38;5.85;;;10.10;94.90;;;;;;5010677;28;25078;-73
2022/03/14 02:53:19;;;;;;;9.35;6.95;;;10.00;94.70;;;;;;5004121;28;25099;-72
2022/03/14 02:55:45;;;;;;;7.72;6.75;;;10.00;94.70;;;;;;5008365;28;25101;-73
2022/03/14 02:58:11;;;;;;;8.23;7.43;;;10.00;94.90;;;;;;5009340;28;25082;-73
2022/03/14 03:00:36;;;;;;;9.27;7.78;;;10.00;94.30;;;;;;5010630;28;25101;-73
2022/03/14 03:03:04;;;;;;;8.63;7.70;;;10.00;94.00;;;;;;5008979;28;25110;-72
2022/03/14 03:05:31;;;;;;;9.15;8.15;;;9.90;94.00;;;;;;5011203;28;25137;-73
2022/03/14 03:08:00;;;;;;;9.52;8.52;;;9.90;94.60;;;;;;5010224;28;25141;-72
2022/03/14 03:10:27;;;;;;;11.77;9.43;;;9.80;95.40;;;;;;5010806;28;25121;-72
2022/03/14 03:12:52;;;;;;;11.00;9.90;;;9.70;96.20;;;;;;5009715;28;25164;-73
2022/03/14 03:15:19;;;;;;;11.80;10.60;;;9.80;96.70;;;;;;5008497;28;25054;-73
2022/03/14 03:17:44;;;;;;;11.48;10.27;;;9.70;97.10;;;;;;5010068;28;25102;-73
2022/03/14 03:20:11;;;;;;;12.07;10.35;;;9.60;97.80;;;;;;5009900;28;25078;-74
2022/03/14 03:22:38;;;;;;;11.15;9.85;;;9.60;98.40;;;;;;5010324;28;25071;-73
2022/03/14 03:25:05;;;;;;;11.10;9.93;;;9.70;98.70;;;;;;5016173;28;25049;-73
2022/03/14 03:27:32;;;;;;;11.60;10.27;;;9.70;99.00;;;;;;5024275;28;25059;-71
2022/03/14 03:29:58;;;;;;;13.18;10.93;;;9.70;99.00;;;;;;5020978;28;25096;-73
2022/03/14 03:32:24;;;;;;;11.88;10.63;;;9.60;99.10;;;;;;5017678;28;25058;-72
2022/03/14 03:34:50;;;;;;;15.40;11.45;;;9.70;99.50;;;;;;4997334;28;25105;-73
2022/03/14 03:37:16;;;;;;;13.18;11.77;;;9.60;99.40;;;;;;5010649;28;25124;-73
2022/03/14 03:39:42;;;;;;;13.63;12.20;;;9.60;99.70;;;;;;4998846;28;25053;-73
2022/03/14 03:42:07;;;;;;;14.38;12.73;;;9.60;99.90;;;;;;5011626;28;25087;-73
2022/03/14 03:44:34;;;;;;;15.25;12.35;;;9.70;99.90;;;;;;5007886;28;25085;-71
2022/03/14 03:46:59;;;;;;;15.32;13.38;;;9.70;99.90;;;;;;5003909;28;25089;-72
2022/03/14 03:49:25;;;;;;;16.45;13.70;;;9.60;99.90;;;;;;5010877;28;25085;-73
2022/03/14 03:51:50;;;;;;;18.85;14.70;;;9.60;99.90;;;;;;5012153;28;25111;-72
2022/03/14 03:54:16;;;;;;;17.30;14.85;;;9.60;99.90;;;;;;5011412;28;25079;-73
2022/03/14 03:56:41;;;;;;;18.50;15.77;;;9.50;99.90;;;;;;5009404;28;25052;-74
2022/03/14 03:59:07;;;;;;;20.23;16.00;;;9.50;99.90;;;;;;5010747;28;25073;-74
2022/03/14 04:01:33;;;;;;;18.67;16.00;;;9.50;99.90;;;;;;4992700;28;25142;-72
2022/03/14 04:03:59;;;;;;;21.80;16.83;;;9.40;99.90;;;;;;5009366;28;25123;-74
2022/03/14 04:06:26;;;;;;;21.23;16.88;;;9.50;99.90;;;;;;5010001;28;25120;-74
2022/03/14 04:08:52;;;;;;;23.33;17.85;;;9.30;99.90;;;;;;5009637;28;25081;-74
2022/03/14 04:11:18;;;;;;;26.02;18.33;;;9.30;99.90;;;;;;5009633;28;25072;-75
2022/03/14 04:13:45;;;;;;;20.27;15.65;;;9.30;99.90;;;;;;4991199;28;25092;-74
2022/03/14 04:16:11;;;;;;;19.10;16.98;;;9.30;99.90;;;;;;5011169;28;25063;-73
2022/03/14 04:18:36;;;;;;;19.65;16.38;;;9.30;99.90;;;;;;5009142;28;25131;-77
2022/03/14 04:21:02;;;;;;;24.92;17.85;;;9.30;99.90;;;;;;5009027;28;25147;-73
2022/03/14 04:23:31;;;;;;;21.98;17.70;;;9.30;99.90;;;;;;5008717;28;25065;-74
2022/03/14 04:25:57;;;;;;;19.23;15.68;;;9.30;99.90;;;;;;5008842;28;25138;-73
2022/03/14 04:28:22;;;;;;;21.13;16.38;;;9.30;99.90;;;;;;5010026;28;25150;-75
2022/03/14 04:30:48;;;;;;;25.10;16.77;;;9.40;99.90;;;;;;5010717;28;25078;-76
2022/03/14 04:33:14;;;;;;;24.02;16.27;;;9.30;99.90;;;;;;5009414;28;25101;-74
2022/03/14 04:35:40;;;;;;;19.15;15.82;;;9.30;99.90;;;;;;4991959;28;25108;-74
2022/03/14 04:38:09;;;;;;;21.48;14.82;;;9.30;99.90;;;;;;5009772;28;25074;-73
2022/03/14 04:40:35;;;;;;;18.65;15.02;;;9.30;99.90;;;;;;5008299;28;25140;-73
2022/03/14 04:43:09;;;;;;;18.90;14.45;;;9.30;99.90;;;;;;5008969;28;25078;-73
2022/03/14 04:45:36;;;;;;;17.60;13.98;;;9.30;99.90;;;;;;5009601;28;25085;-73
2022/03/14 04:48:02;;;;;;;21.17;14.00;;;9.30;99.90;;;;;;5007973;28;25052;-72
2022/03/14 04:50:28;;;;;;;16.23;12.52;;;9.30;99.90;;;;;;5008757;28;25133;-74
2022/03/14 04:52:54;;;;;;;16.67;13.27;;;9.30;99.90;;;;;;5007794;28;25155;-73
2022/03/14 04:55:20;;;;;;;19.95;13.02;;;9.30;99.90;;;;;;5008746;28;25055;-74
2022/03/14 04:57:45;;;;;;;17.02;12.93;;;9.20;99.90;;;;;;5008381;28;25092;-74
2022/03/14 05:00:12;;;;;;;20.00;13.77;;;9.30;99.90;;;;;;5008235;28;25100;-74
2022/03/14 05:02:38;;;;;;;16.77;13.63;;;9.30;99.90;;;;;;5007823;28;25104;-74
2022/03/14 05:05:08;;;;;;;17.48;13.70;;;9.30;99.90;;;;;;5008356;28;25080;-72
2022/03/14 05:07:33;;;;;;;21.95;15.10;;;9.20;99.90;;;;;;5008107;28;25074;-73
2022/03/14 05:09:59;;;;;;;18.55;14.90;;;9.20;99.90;;;;;;4990741;28;25040;-73
2022/03/14 05:12:25;;;;;;;20.27;14.32;;;9.20;99.90;;;;;;5007900;28;24753;-74
2022/03/14 05:14:51;;;;;;;19.00;15.23;;;9.20;99.90;;;;;;5008124;28;25159;-73
2022/03/14 05:17:17;;;;;;;19.95;15.27;;;9.20;99.90;;;;;;5007779;28;25064;-73
2022/03/14 05:19:43;;;;;;;17.35;14.40;;;9.20;99.90;;;;;;5008099;28;25066;-73
2022/03/14 05:22:09;;;;;;;19.42;15.30;;;9.20;99.90;;;;;;5008462;28;25069;-73
2022/03/14 05:24:35;;;;;;;19.58;16.05;;;9.20;99.90;;;;;;5008426;28;25087;-73
2022/03/14 05:27:01;;;;;;;19.95;15.82;;;9.20;99.90;;;;;;5008040;28;25064;-73
2022/03/14 05:29:27;;;;;;;21.48;16.45;;;9.20;99.90;;;;;;4991409;28;25173;-73
2022/03/14 05:31:53;;;;;;;22.15;16.83;;;9.20;99.90;;;;;;5010103;28;25071;-72
2022/03/14 05:34:18;;;;;;;21.73;16.08;;;9.20;99.90;;;;;;5009338;28;25077;-73
2022/03/14 05:36:44;;;;;;;22.08;15.95;;;9.20;99.90;;;;;;5008892;28;25145;-73
2022/03/14 05:39:10;;;;;;;21.58;17.20;;;9.20;99.90;;;;;;5012063;28;25051;-73
2022/03/14 05:41:35;;;;;;;23.40;17.27;;;9.20;99.90;;;;;;5015293;28;25144;-74
2022/03/14 05:44:01;;;;;;;21.67;17.17;;;9.20;99.90;;;;;;5014605;28;25067;-76
2022/03/14 05:46:26;;;;;;;27.95;19.60;;;9.10;99.90;;;;;;5011460;28;25064;-73
2022/03/14 05:48:52;;;;;;;28.30;20.13;;;9.10;99.90;;;;;;5016808;28;25079;-74
2022/03/14 05:51:18;;;;;;;26.20;20.02;;;9.20;99.90;;;;;;5012995;28;25076;-73
2022/03/14 05:53:43;;;;;;;28.17;19.48;;;9.10;99.90;;;;;;4994400;28;25170;-76
2022/03/14 05:56:09;;;;;;;35.92;22.02;;;9.10;99.90;;;;;;5011528;28;25064;-73
2022/03/14 05:58:34;;;;;;;61.40;22.85;;;9.20;99.90;;;;;;4994696;28;25053;-73
2022/03/14 06:01:00;;;;;;;31.10;20.10;;;9.20;99.90;;;;;;5012452;28;25109;-72
2022/03/14 06:03:25;;;;;;;39.40;22.15;;;9.20;99.90;;;;;;4994576;28;25085;-73
2022/03/14 06:05:51;;;;;;;27.55;19.77;;;9.20;99.90;;;;;;5015476;28;25057;-72
2022/03/14 06:08:17;;;;;;;29.85;19.50;;;9.20;99.90;;;;;;5014634;28;25045;-73
2022/03/14 06:10:45;;;;;;;30.27;19.88;;;9.20;99.90;;;;;;5014956;28;25069;-72
2022/03/14 06:13:10;;;;;;;24.63;19.63;;;9.20;99.90;;;;;;5021386;28;25088;-70
2022/03/14 06:15:36;;;;;;;28.38;19.83;;;9.10;99.90;;;;;;5028152;28;25120;-72
2022/03/14 06:18:02;;;;;;;22.08;17.73;;;9.20;99.90;;;;;;5029778;28;25065;-75
2022/03/14 06:20:28;;;;;;;38.38;25.10;;;9.20;99.90;;;;;;5020299;28;25095;-73
2022/03/14 06:22:53;;;;;;;35.35;20.13;;;9.20;99.90;;;;;;5022266;28;25083;-75
2022/03/14 06:25:19;;;;;;;31.17;19.33;;;9.20;99.90;;;;;;5022969;28;25066;-71
2022/03/14 06:27:45;;;;;;;30.48;20.55;;;9.20;99.90;;;;;;5021703;28;25063;-73
2022/03/14 06:30:11;;;;;;;25.42;18.63;;;9.20;99.90;;;;;;5034083;28;25061;-73
2022/03/14 06:32:38;;;;;;;29.77;19.33;;;9.20;99.90;;;;;;5028539;28;25056;-74
2022/03/14 06:35:06;;;;;;;28.73;20.40;;;9.10;99.90;;;;;;5007686;28;25083;-73
2022/03/14 06:37:32;;;;;;;30.55;18.00;;;9.10;99.90;;;;;;4997910;28;25070;-72
2022/03/14 06:39:57;;;;;;;29.50;17.25;;;9.20;99.90;;;;;;5006399;28;25122;-73
2022/03/14 06:42:23;;;;;;;30.13;20.45;;;9.20;99.90;;;;;;5015038;28;25067;-71
2022/03/14 06:44:49;;;;;;;27.50;18.15;;;9.20;99.90;;;;;;5001987;28;25133;-72
2022/03/14 06:47:19;;;;;;;28.38;18.35;;;9.20;99.90;;;;;;5017370;28;25061;-72
2022/03/14 06:49:45;;;;;;;27.40;19.48;;;9.20;99.90;;;;;;5015424;28;25079;-73
2022/03/14 06:52:12;;;;;;;29.08;19.17;;;9.20;99.90;;;;;;5015205;28;25058;-72
2022/03/14 06:54:38;;;;;;;24.35;18.83;;;9.20;99.90;;;;;;5014552;28;25055;-72
2022/03/14 06:57:07;;;;;;;25.27;17.63;;;9.20;99.90;;;;;;5003566;28;25096;-75
2022/03/14 06:59:32;;;;;;;26.65;18.48;;;9.20;99.90;;;;;;5007898;28;25078;-73
2022/03/14 07:01:59;;;;;;;26.65;20.05;;;9.20;99.90;;;;;;5002039;28;25060;-74
2022/03/14 07:04:24;;;;;;;27.50;20.15;;;9.20;99.90;;;;;;4999268;28;25133;-72
2022/03/14 07:06:50;;;;;;;26.58;19.23;;;9.20;99.90;;;;;;5005565;28;25064;-73
2022/03/14 07:09:15;;;;;;;26.50;18.52;;;9.10;99.90;;;;;;4998351;28;25056;-73
2022/03/14 07:11:41;;;;;;;28.17;19.27;;;9.20;99.90;;;;;;5004470;28;25083;-69
2022/03/14 07:14:07;;;;;;;29.08;19.40;;;9.20;99.90;;;;;;4999880;28;25167;-73
2022/03/14 07:16:33;;;;;;;28.45;17.98;;;9.20;99.90;;;;;;5010633;28;25118;-72
2022/03/14 07:18:59;;;;;;;26.35;17.65;;;9.30;99.90;;;;;;5012115;28;25059;-74
2022/03/14 07:21:28;;;;;;;23.92;17.33;;;9.30;99.90;;;;;;4995250;28;25087;-74
2022/03/14 07:23:55;;;;;;;23.38;17.80;;;9.30;99.90;;;;;;5003128;28;25071;-74
2022/03/14 07:26:21;;;;;;;30.90;18.50;;;9.20;99.90;;;;;;5011530;28;25079;-73
2022/03/14 07:28:48;;;;;;;22.73;17.63;;;9.30;99.90;;;;;;5022634;28;25074;-73
2022/03/14 07:31:14;;;;;;;25.83;17.50;;;9.40;99.90;;;;;;4995140;28;25067;-73
2022/03/14 07:33:40;;;;;;;21.48;15.90;;;9.50;99.90;;;;;;4992219;28;25062;-73
2022/03/14 07:36:07;;;;;;;33.58;19.40;;;9.40;99.90;;;;;;4966982;28;25130;-74
2022/03/14 07:38:32;;;;;;;23.60;17.92;;;9.30;99.90;;;;;;5003210;28;25139;-72
2022/03/14 07:40:58;;;;;;;22.70;16.65;;;9.40;99.90;;;;;;5027671;28;25076;-72
2022/03/14 07:43:23;;;;;;;23.08;17.88;;;9.40;99.90;;;;;;5030155;28;25077;-72
2022/03/14 07:45:49;;;;;;;24.05;17.63;;;9.50;99.90;;;;;;5029864;28;25079;-73
2022/03/14 07:48:14;;;;;;;21.20;15.98;;;9.50;99.90;;;;;;5027277;28;25076;-73
2022/03/14 07:50:41;;;;;;;27.50;16.73;;;9.60;99.90;;;;;;5027773;28;25060;-72
2022/03/14 07:53:07;;;;;;;22.52;16.58;;;9.60;99.90;;;;;;5027737;28;25053;-71
2022/03/14 07:55:33;;;;;;;24.08;18.08;;;9.50;99.90;;;;;;5023250;28;25050;-71
2022/03/14 07:57:58;;;;;;;27.92;17.77;;;9.50;99.90;;;;;;5024136;28;25080;-75
2022/03/14 08:00:24;;;;;;;27.85;18.35;;;9.50;99.90;;;;;;5035330;28;25064;-74
2022/03/14 08:02:50;;;;;;;23.50;18.30;;;9.50;99.90;;;;;;5035945;28;25069;-73
2022/03/14 08:05:17;;;;;;;26.08;17.33;;;9.50;99.90;;;;;;5036204;28;25055;-74
2022/03/14 08:07:47;;;;;;;21.88;17.15;;;9.60;99.90;;;;;;5036403;28;25048;-74
2022/03/14 08:10:15;;;;;;;22.27;17.27;;;9.70;99.90;;;;;;5036680;28;25088;-73
2022/03/14 08:12:53;;;;;;;26.00;17.52;;;9.60;99.90;;;;;;5036302;28;25051;-73
2022/03/14 08:15:31;;;;;;;26.27;16.90;;;9.70;99.90;;;;;;5035884;28;25074;-74
2022/03/14 08:18:01;;;;;;;25.40;15.95;;;9.70;99.90;;;;;;5035923;28;25088;-72
2022/03/14 08:20:27;;;;;;;27.45;16.58;;;9.70;99.50;;;;;;5035736;28;25069;-74
2022/03/14 08:22:55;;;;;;;29.85;15.68;;;9.70;99.40;;;;;;5025759;28;25044;-73
2022/03/14 08:25:21;;;;;;;28.83;17.05;;;9.60;99.10;;;;;;5019456;28;25090;-72
2022/03/14 08:27:48;;;;;;;24.30;15.43;;;9.70;99.30;;;;;;5018958;28;25059;-73
2022/03/14 08:30:14;;;;;;;31.20;17.05;;;9.70;98.80;;;;;;5028129;28;25084;-72
2022/03/14 08:32:41;;;;;;;23.13;16.10;;;9.70;98.40;;;;;;5016902;28;25074;-73
2022/03/14 08:35:08;;;;;;;29.45;17.38;;;9.70;98.60;;;;;;5013370;28;25091;-73
2022/03/14 08:37:36;;;;;;;31.88;17.88;;;9.70;98.30;;;;;;5024959;28;25067;-74
2022/03/14 08:40:03;;;;;;;26.27;17.83;;;9.80;98.40;;;;;;5020219;28;25077;-74
2022/03/14 08:42:28;;;;;;;27.67;16.73;;;9.80;98.00;;;;;;5027707;28;25061;-73
2022/03/14 08:44:54;;;;;;;28.27;17.15;;;9.80;98.10;;;;;;5029866;28;25065;-74
2022/03/14 08:47:20;;;;;;;25.92;15.73;;;9.80;97.90;;;;;;5023484;28;25077;-76
2022/03/14 08:49:46;;;;;;;26.25;15.68;;;9.80;98.00;;;;;;5028540;28;25082;-74
2022/03/14 08:52:11;;;;;;;30.42;15.82;;;9.90;97.80;;;;;;5024732;28;25063;-71
2022/03/14 08:54:37;;;;;;;24.98;16.40;;;10.00;97.60;;;;;;5018822;28;25051;-76
2022/03/14 08:57:02;;;;;;;20.45;13.27;;;9.90;97.20;;;;;;5017291;28;25072;-74
2022/03/14 08:59:28;;;;;;;23.33;15.48;;;9.90;97.40;;;;;;5022405;28;25075;-73
2022/03/14 09:01:54;;;;;;;31.02;15.38;;;9.90;96.40;;;;;;5026474;28;25062;-73
2022/03/14 09:04:19;;;;;;;24.20;14.57;;;10.00;96.70;;;;;;5032646;28;25058;-73
2022/03/14 09:06:45;;;;;;;24.42;14.77;;;10.10;96.30;;;;;;5032822;28;25082;-75
2022/03/14 09:09:12;;;;;;;21.15;14.48;;;10.20;96.20;;;;;;5029503;28;25144;-71
2022/03/14 09:11:39;;;;;;;25.05;14.13;;;10.20;95.60;;;;;;5026028;28;25047;-75
2022/03/14 09:14:05;;;;;;;25.15;14.70;;;10.00;94.90;;;;;;5033620;28;25068;-73
2022/03/14 09:16:31;;;;;;;27.45;14.13;;;10.10;96.00;;;;;;5025586;28;25069;-76
2022/03/14 09:18:57;;;;;;;29.92;15.25;;;10.10;95.20;;;;;;5016198;28;25064;-76
2022/03/14 09:21:26;;;;;;;25.10;14.13;;;10.20;95.70;;;;;;5025075;28;25070;-75
2022/03/14 09:23:52;;;;;;;21.13;13.02;;;10.40;95.90;;;;;;5026032;28;25065;-74
2022/03/14 09:26:17;;;;;;;24.75;13.13;;;10.60;95.30;;;;;;5032624;28;25069;-74
2022/03/14 09:28:44;;;;;;;22.48;14.75;;;10.70;94.60;;;;;;5026973;28;25064;-75
2022/03/14 09:31:12;;;;;;;25.05;14.43;;;10.60;93.90;;;;;;5021197;28;25058;-74
2022/03/14 09:33:38;;;;;;;23.55;14.75;;;10.50;93.40;;;;;;5022252;28;25097;-75
2022/03/14 09:36:04;;;;;;;28.42;13.38;;;10.30;93.70;;;;;;5013934;28;25061;-75
2022/03/14 09:38:30;;;;;;;27.52;14.15;;;10.40;94.20;;;;;;5018096;28;25086;-72
2022/03/14 09:40:59;;;;;;;41.00;14.85;;;10.30;94.00;;;;;;5024307;28;25064;-73
2022/03/14 09:43:26;;;;;;;21.98;13.68;;;10.30;94.00;;;;;;5023812;28;25063;-73
2022/03/14 09:45:53;;;;;;;25.85;15.30;;;10.50;93.80;;;;;;5011974;28;25088;-73
2022/03/14 09:48:19;;;;;;;24.90;15.30;;;10.40;93.60;;;;;;5010456;28;25075;-73
2022/03/14 09:50:45;;;;;;;30.13;14.73;;;10.50;93.80;;;;;;5012908;28;25068;-71
2022/03/14 09:53:15;;;;;;;24.35;14.23;;;10.50;93.40;;;;;;5013136;28;25091;-74
2022/03/14 09:55:43;;;;;;;22.67;12.77;;;10.50;93.50;;;;;;5009099;28;25061;-74
2022/03/14 09:58:13;;;;;;;22.88;13.88;;;10.60;92.60;;;;;;5010077;28;25137;-73
2022/03/14 10:00:40;;;;;;;24.25;13.80;;;10.50;92.40;;;;;;5008246;28;25096;-72
2022/03/14 10:03:05;;;;;;;22.25;13.50;;;10.50;92.80;;;;;;4997745;28;25093;-75
2022/03/14 10:05:32;;;;;;;20.67;11.60;;;10.50;92.70;;;;;;5008279;28;25103;-72
2022/03/14 10:07:57;;;;;;;28.02;12.38;;;10.50;93.20;;;;;;4989859;28;25063;-73
2022/03/14 10:10:23;;;;;;;21.77;13.07;;;10.70;92.80;;;;;;5000675;28;25146;-73
2022/03/14 10:12:53;;;;;;;25.90;13.80;;;10.70;92.20;;;;;;4991036;28;25063;-72
2022/03/14 10:15:19;;;;;;;24.67;13.35;;;10.60;91.80;;;;;;4999648;28;25095;-77
2022/03/14 10:17:44;;;;;;;24.20;13.40;;;10.60;92.10;;;;;;5005680;28;25098;-72
2022/03/14 10:20:10;;;;;;;24.02;13.07;;;10.60;92.30;;;;;;5009028;28;25117;-70
2022/03/14 10:22:38;;;;;;;23.27;12.13;;;10.60;92.10;;;;;;5008996;28;25090;-72
2022/03/14 10:25:13;;;;;;;20.92;14.30;;;10.60;91.90;;;;;;4993720;28;25136;-74
2022/03/14 10:27:40;;;;;;;79.82;17.10;;;10.60;92.60;;;;;;5013060;28;25127;-71
2022/03/14 10:30:19;;;;;;;21.50;13.48;;;10.60;92.40;;;;;;5011943;28;25074;-73
2022/03/14 10:32:47;;;;;;;29.85;14.15;;;10.60;92.30;;;;;;5011726;28;25127;-72
2022/03/14 10:35:16;;;;;;;52.75;20.73;;;10.70;92.60;;;;;;5012129;28;25056;-73
2022/03/14 10:37:57;;;;;;;24.70;13.82;;;10.80;92.70;;;;;;5012222;28;25061;-70
2022/03/14 10:40:37;;;;;;;25.10;12.07;;;10.80;91.50;;;;;;5012126;28;25131;-75
2022/03/14 10:43:08;;;;;;;26.88;13.38;;;11.00;92.00;;;;;;5012740;28;25107;-73
2022/03/14 10:45:34;;;;;;;36.83;21.27;;;11.20;91.30;;;;;;5012728;28;25085;-72
2022/03/14 10:48:02;;;;;;;24.27;13.25;;;11.30;91.00;;;;;;5010008;28;25067;-71
2022/03/14 10:50:28;;;;;;;17.60;11.40;;;11.50;90.50;;;;;;5020217;28;25077;-72
2022/03/14 10:53:10;;;;;;;20.50;10.90;;;11.40;89.50;;;;;;5014718;28;25066;-73
2022/03/14 10:55:41;;;;;;;22.02;12.15;;;11.50;88.70;;;;;;5008503;28;25171;-72
2022/03/14 10:58:09;;;;;;;318.80;45.22;;;11.50;88.30;;;;;;4991508;28;25061;-74
2022/03/14 11:00:51;;;;;;;23.95;12.10;;;11.70;88.80;;;;;;4995234;28;25046;-72
2022/03/14 11:03:31;;;;;;;18.55;10.75;;;11.90;87.50;;;;;;5014003;28;25075;-72
2022/03/14 11:06:05;;;;;;;20.65;11.13;;;12.00;85.60;;;;;;5018605;28;25159;-70
2022/03/14 11:08:38;;;;;;;23.90;13.05;;;12.00;85.40;;;;;;5013595;28;25082;-72
2022/03/14 11:11:13;;;;;;;21.85;11.07;;;12.10;85.10;;;;;;4995426;28;25070;-72
2022/03/14 11:13:42;;;;;;;23.25;11.57;;;11.90;85.20;;;;;;5011540;28;25152;-72
2022/03/14 11:16:26;;;;;;;18.13;11.30;;;11.90;85.70;;;;;;4994371;28;25069;-72
2022/03/14 11:18:53;;;;;;;17.35;10.93;;;12.00;86.10;;;;;;5011470;28;25064;-73
2022/03/14 11:21:20;;;;;;;22.45;10.55;;;12.10;85.80;;;;;;5011737;28;25076;-72
2022/03/14 11:23:48;;;;;;;27.02;11.73;;;12.00;83.90;;;;;;4993612;28;25091;-73
2022/03/14 11:26:20;;;;;;;17.40;10.38;;;12.00;84.90;;;;;;5010733;28;25090;-71
2022/03/14 11:28:49;;;;;;;19.42;10.93;;;11.70;83.70;;;;;;5012892;28;25054;-71
2022/03/14 11:31:18;;;;;;;26.88;11.05;;;11.80;85.00;;;;;;5012500;28;25114;-73
2022/03/14 11:33:44;;;;;;;18.15;11.55;;;11.70;84.30;;;;;;5012421;28;25170;-73
2022/03/14 11:36:11;;;;;;;24.88;12.10;;;11.70;83.80;;;;;;4992235;28;25058;-73
2022/03/14 11:38:37;;;;;;;25.98;12.80;;;11.60;86.30;;;;;;5011622;28;25055;-74
2022/03/14 11:41:03;;;;;;;17.67;10.80;;;11.70;86.30;;;;;;5011683;28;25081;-71
2022/03/14 11:43:29;;;;;;;16.85;10.80;;;11.90;84.50;;;;;;4993733;28;25060;-71
2022/03/14 11:45:59;;;;;;;19.25;9.43;;;12.00;84.60;;;;;;5011595;28;25078;-73
2022/03/14 11:48:30;;;;;;;20.25;11.70;;;12.20;84.40;;;;;;5011140;28;25057;-72
2022/03/14 11:51:02;;;;;;;18.77;11.85;;;12.30;83.10;;;;;;5014412;28;25080;-72
2022/03/14 11:53:34;;;;;;;18.40;12.75;;;12.10;82.70;;;;;;5029345;28;25099;-74
2022/03/14 11:56:05;;;;;;;19.73;12.40;;;12.20;82.80;;;;;;5013344;28;25053;-72
2022/03/14 11:58:37;;;;;;;35.33;14.38;;;12.20;83.90;;;;;;5015831;28;25075;-74
2022/03/14 12:01:30;;;;;;;27.50;14.73;;;12.40;82.70;;;;;;4986786;28;25080;-74
2022/03/14 12:04:02;;;;;;;30.67;16.23;;;12.20;82.30;;;;;;4990286;28;25133;-71
2022/03/14 12:06:46;;;;;;;28.52;15.80;;;12.20;82.50;;;;;;5002297;28;25091;-73
2022/03/14 12:09:24;;;;;;;25.80;16.33;;;12.10;81.00;;;;;;4999259;28;25064;-74
2022/03/14 12:11:55;;;;;;;22.85;16.55;;;12.10;81.90;;;;;;4999930;28;25063;-70
2022/03/14 12:14:44;;;;;;;25.10;15.15;;;12.20;82.10;;;;;;4996825;28;25063;-71
2022/03/14 12:17:13;;;;;;;26.40;13.48;;;12.40;82.00;;;;;;4997776;28;25108;-72
2022/03/14 12:19:50;;;;;;;25.75;15.13;;;12.60;79.00;;;;;;5002554;28;25087;-74
2022/03/14 12:22:30;;;;;;;37.08;13.35;;;12.70;76.00;;;;;;4996913;28;25062;-73
2022/03/14 12:24:57;;;;;;;29.85;14.18;;;12.60;75.20;;;;;;5000801;28;25074;-72
2022/03/14 12:27:33;;;;;;;33.88;16.80;;;12.40;75.50;;;;;;4981075;28;25083;-71
2022/03/14 12:30:00;;;;;;;27.83;15.52;;;12.40;77.20;;;;;;5002680;28;25088;-72
2022/03/14 12:32:32;;;;;;;29.02;17.17;;;12.30;77.60;;;;;;4999941;28;25064;-71
2022/03/14 12:35:22;;;;;;;32.10;16.65;;;12.30;78.80;;;;;;4984451;28;25092;-72
2022/03/14 12:37:49;;;;;;;29.05;15.75;;;12.00;80.10;;;;;;4986239;28;25072;-72